createdAt,value
2023-07-27T00:00:41.037Z,0
2023-07-27T00:01:44.708Z,0
2023-07-27T00:03:53.758Z,0
2023-07-27T00:04:57.191Z,0
2023-07-27T00:07:05.752Z,0
2023-07-27T00:08:09.339Z,0
2023-07-27T00:10:18.007Z,0
2023-07-27T00:11:21.347Z,0
2023-07-27T00:13:29.336Z,0
2023-07-27T00:14:32.637Z,0
2023-07-27T00:16:41.469Z,0
2023-07-27T00:17:45.021Z,0
2023-07-27T00:19:53.034Z,0
2023-07-27T00:20:56.225Z,0
2023-07-27T00:23:04.643Z,0
2023-07-27T00:24:08.143Z,0
2023-07-27T00:26:16.563Z,0
2023-07-27T00:27:19.649Z,0
2023-07-27T00:29:27.815Z,0
2023-07-27T00:30:31.425Z,0
2023-07-27T00:32:39.999Z,0
2023-07-27T00:33:43.713Z,0
2023-07-27T00:35:52.084Z,0
2023-07-27T00:36:55.899Z,0
2023-07-27T00:39:03.899Z,0
2023-07-27T00:40:07.418Z,0
2023-07-27T00:42:16.418Z,0
2023-07-27T00:43:19.538Z,0
2023-07-27T00:45:27.936Z,0
2023-07-27T00:46:32.225Z,0
2023-07-27T00:48:41.237Z,0
2023-07-27T00:49:44.857Z,0
2023-07-27T00:51:52.963Z,0
2023-07-27T00:52:56.156Z,0
2023-07-27T00:55:04.235Z,0
2023-07-27T00:56:07.595Z,0
2023-07-27T00:58:16.261Z,0
2023-07-27T00:59:19.617Z,0
2023-07-27T01:01:44.518Z,0
2023-07-27T01:03:53.802Z,0
2023-07-27T01:04:57.346Z,0
2023-07-27T01:07:05.767Z,0
2023-07-27T01:08:09.208Z,0
2023-07-27T01:10:19.430Z,0
2023-07-27T01:11:22.923Z,0
2023-07-27T01:13:31.208Z,0
2023-07-27T01:14:34.360Z,0
2023-07-27T01:16:43.932Z,0
2023-07-27T01:17:47.561Z,0
2023-07-27T01:19:55.487Z,0
2023-07-27T01:20:58.909Z,0
2023-07-27T01:23:07.255Z,0
2023-07-27T01:24:10.537Z,0
2023-07-27T01:26:18.957Z,0
2023-07-27T01:27:22.269Z,0
2023-07-27T01:29:30.523Z,0
2023-07-27T01:30:33.807Z,0
2023-07-27T01:32:42.433Z,0.435
2023-07-27T01:33:45.722Z,0
2023-07-27T01:35:54.520Z,0
2023-07-27T01:36:58.101Z,0
2023-07-27T01:39:06.545Z,0
2023-07-27T01:40:10.035Z,0
2023-07-27T01:42:18.121Z,0
2023-07-27T01:43:21.355Z,0
2023-07-27T01:45:30.537Z,0
2023-07-27T01:46:34.440Z,0
2023-07-27T01:48:42.935Z,0
2023-07-27T01:49:46.513Z,0
2023-07-27T01:51:54.813Z,0
2023-07-27T01:52:58.224Z,0
2023-07-27T01:55:06.649Z,0
2023-07-27T01:56:10.061Z,0
2023-07-27T01:58:18.491Z,0
2023-07-27T01:59:21.995Z,0
2023-07-27T02:01:45.049Z,0
2023-07-27T02:03:53.938Z,0
2023-07-27T02:04:58.462Z,0
2023-07-27T02:07:07.927Z,0
2023-07-27T02:08:10.971Z,0
2023-07-27T02:10:19.495Z,0
2023-07-27T02:11:22.758Z,0
2023-07-27T02:13:30.685Z,0
2023-07-27T02:14:34.389Z,0
2023-07-27T02:16:43.666Z,0
2023-07-27T02:17:47.120Z,0
2023-07-27T02:19:55.191Z,0
2023-07-27T02:20:58.477Z,0
2023-07-27T02:23:07.069Z,0
2023-07-27T02:24:10.335Z,0
2023-07-27T02:26:18.598Z,0
2023-07-27T02:27:21.767Z,0
2023-07-27T02:29:30.155Z,0.435
2023-07-27T02:30:33.185Z,0
2023-07-27T02:32:42.581Z,0
2023-07-27T02:33:46.060Z,0
2023-07-27T02:35:54.126Z,0
2023-07-27T02:36:57.871Z,0.435
2023-07-27T02:39:06.552Z,0
2023-07-27T02:40:09.908Z,0
2023-07-27T02:42:18.001Z,0.435
2023-07-27T02:43:21.477Z,0
2023-07-27T02:45:30.044Z,0
2023-07-27T02:46:33.904Z,0
2023-07-27T02:48:42.385Z,0
2023-07-27T02:49:45.852Z,0.435
2023-07-27T02:51:54.154Z,0
2023-07-27T02:52:57.281Z,0
2023-07-27T02:55:05.760Z,0
2023-07-27T02:56:09.047Z,0
2023-07-27T02:58:17.136Z,0.435
2023-07-27T02:59:20.480Z,0
2023-07-27T03:01:44.538Z,0
2023-07-27T03:03:53.323Z,0
2023-07-27T03:04:57.000Z,0.435
2023-07-27T03:07:05.226Z,0
2023-07-27T03:08:08.722Z,0
2023-07-27T03:10:17.441Z,0.435
2023-07-27T03:11:20.628Z,0
2023-07-27T03:13:29.009Z,0
2023-07-27T03:14:32.197Z,0
2023-07-27T03:16:41.217Z,0
2023-07-27T03:17:44.714Z,0
2023-07-27T03:19:52.753Z,0
2023-07-27T03:20:55.909Z,0
2023-07-27T03:23:03.949Z,0
2023-07-27T03:24:07.377Z,0
2023-07-27T03:26:16.001Z,0
2023-07-27T03:27:19.279Z,0
2023-07-27T03:29:27.191Z,0
2023-07-27T03:30:30.684Z,0
2023-07-27T03:32:40.051Z,0.435
2023-07-27T03:33:43.471Z,0
2023-07-27T03:35:53.066Z,0
2023-07-27T03:36:57.129Z,0
2023-07-27T03:39:05.532Z,0
2023-07-27T03:40:08.880Z,0
2023-07-27T03:42:17.034Z,0
2023-07-27T03:43:20.174Z,0
2023-07-27T03:45:28.225Z,0
2023-07-27T03:46:32.369Z,0
2023-07-27T03:48:41.418Z,0.435
2023-07-27T03:49:44.904Z,0.435
2023-07-27T03:51:52.665Z,0
2023-07-27T03:52:55.917Z,0.435
2023-07-27T03:55:04.120Z,0
2023-07-27T03:56:07.444Z,0
2023-07-27T03:58:15.670Z,0.435
2023-07-27T03:59:18.946Z,0.435
2023-07-27T04:01:44.191Z,0
2023-07-27T04:03:52.935Z,0
2023-07-27T04:04:56.024Z,0
2023-07-27T04:06:11.825Z,0
2023-07-27T04:07:15.993Z,0
2023-07-27T04:09:23.996Z,0
2023-07-27T04:10:27.464Z,0.435
2023-07-27T04:12:36.093Z,0
2023-07-27T04:13:39.559Z,0
2023-07-27T04:15:48.190Z,0.435
2023-07-27T04:16:52.372Z,0.435
2023-07-27T04:19:02.099Z,0
2023-07-27T04:20:06.543Z,0
2023-07-27T04:22:14.363Z,0
2023-07-27T04:23:17.560Z,0
2023-07-27T04:25:26.082Z,0.435
2023-07-27T04:26:29.412Z,0
2023-07-27T04:28:37.838Z,0.435
2023-07-27T04:29:41.172Z,0.435
2023-07-27T04:31:49.485Z,0.435
2023-07-27T04:32:54.564Z,0.435
2023-07-27T04:35:02.555Z,0.435
2023-07-27T04:36:06.238Z,0.435
2023-07-27T04:38:14.544Z,0.435
2023-07-27T04:39:17.629Z,0.435
2023-07-27T04:41:26.203Z,0.435
2023-07-27T04:42:29.590Z,0.435
2023-07-27T04:44:37.506Z,0.435
2023-07-27T04:45:40.889Z,0.435
2023-07-27T04:47:50.323Z,0.435
2023-07-27T04:48:53.681Z,0.435
2023-07-27T04:51:03.301Z,0
2023-07-27T04:52:06.760Z,0.435
2023-07-27T04:54:15.014Z,0.435
2023-07-27T04:55:18.096Z,0
2023-07-27T04:57:26.550Z,0.435
2023-07-27T04:58:29.759Z,0.435
2023-07-27T05:00:43.289Z,0.585
2023-07-27T05:01:47.265Z,0.435
2023-07-27T05:03:55.579Z,0.435
2023-07-27T05:04:59.267Z,0.435
2023-07-27T05:07:07.213Z,0.435
2023-07-27T05:08:10.552Z,0.435
2023-07-27T05:10:22.180Z,0.435
2023-07-27T05:11:25.707Z,0.435
2023-07-27T05:13:34.191Z,0.435
2023-07-27T05:14:37.589Z,0.435
2023-07-27T05:16:46.165Z,0.435
2023-07-27T05:17:50.110Z,0.435
2023-07-27T05:19:58.678Z,0.585
2023-07-27T05:21:02.170Z,0.435
2023-07-27T05:23:10.419Z,0.435
2023-07-27T05:24:13.773Z,0.435
2023-07-27T05:26:22.243Z,0.435
2023-07-27T05:27:25.497Z,0.435
2023-07-27T05:29:33.880Z,0.585
2023-07-27T05:30:37.165Z,0.435
2023-07-27T05:32:46.196Z,0.435
2023-07-27T05:33:50.508Z,0.435
2023-07-27T05:35:59.010Z,0.435
2023-07-27T05:37:02.559Z,0.435
2023-07-27T05:39:11.488Z,0.435
2023-07-27T05:40:15.118Z,0.735
2023-07-27T05:42:23.028Z,0.735
2023-07-27T05:43:26.220Z,0.585
2023-07-27T05:45:34.657Z,0.585
2023-07-27T05:46:38.796Z,0.435
2023-07-27T05:48:46.973Z,0.435
2023-07-27T05:49:50.287Z,0.435
2023-07-27T05:51:58.515Z,0.435
2023-07-27T05:53:01.999Z,0.435
2023-07-27T05:55:10.331Z,0.435
2023-07-27T05:56:15.708Z,0.435
2023-07-27T05:58:47.427Z,0
2023-07-27T06:00:41.381Z,0.435
2023-07-27T06:01:48.976Z,0.585
2023-07-27T06:04:18.013Z,0.435
2023-07-27T06:05:21.450Z,0.435
2023-07-27T06:07:29.555Z,0.585
2023-07-27T06:08:32.728Z,0.435
2023-07-27T06:10:41.409Z,0.435
2023-07-27T06:11:44.726Z,0.435
2023-07-27T06:13:52.735Z,0.435
2023-07-27T06:14:55.971Z,0.585
2023-07-27T06:17:05.494Z,0.435
2023-07-27T06:18:10.181Z,0.435
2023-07-27T06:20:18.683Z,0.585
2023-07-27T06:21:21.804Z,0.435
2023-07-27T06:23:30.088Z,0.435
2023-07-27T06:24:33.499Z,0.585
2023-07-27T06:26:42.255Z,0.735
2023-07-27T06:27:45.755Z,0.585
2023-07-27T06:29:53.796Z,0.585
2023-07-27T06:30:57.209Z,0.435
2023-07-27T06:33:06.827Z,0.435
2023-07-27T06:34:11.091Z,0.735
2023-07-27T06:36:18.990Z,0.435
2023-07-27T06:37:22.265Z,0.435
2023-07-27T06:39:30.394Z,0.585
2023-07-27T06:40:33.931Z,0.585
2023-07-27T06:42:42.373Z,0.585
2023-07-27T06:43:45.796Z,0.585
2023-07-27T06:45:54.113Z,0.885
2023-07-27T06:46:58.774Z,0.585
2023-07-27T06:49:08.551Z,0.885
2023-07-27T06:50:11.953Z,0.735
2023-07-27T06:52:20.053Z,0.885
2023-07-27T06:53:23.616Z,0.735
2023-07-27T06:55:32.261Z,0.735
2023-07-27T06:56:35.703Z,0.735
2023-07-27T06:58:44.190Z,0.885
2023-07-27T06:59:47.950Z,0.885
2023-07-27T07:00:41.320Z,0.885
2023-07-27T07:01:44.909Z,1.02
2023-07-27T07:03:54.185Z,1.02
2023-07-27T07:05:01.415Z,0.885
2023-07-27T07:07:09.510Z,0.885
2023-07-27T07:08:12.732Z,0.885
2023-07-27T07:10:21.338Z,1.02
2023-07-27T07:11:24.960Z,1.02
2023-07-27T07:13:32.767Z,1.17
2023-07-27T07:14:36.127Z,1.32
2023-07-27T07:16:45.458Z,1.02
2023-07-27T07:17:49.216Z,1.17
2023-07-27T07:19:57.278Z,1.32
2023-07-27T07:21:04.700Z,1.47
2023-07-27T07:23:13.257Z,1.32
2023-07-27T07:24:16.669Z,1.32
2023-07-27T07:26:24.854Z,1.47
2023-07-27T07:27:28.178Z,1.47
2023-07-27T07:29:36.465Z,1.47
2023-07-27T07:30:40.004Z,1.755
2023-07-27T07:32:48.770Z,1.17
2023-07-27T07:33:52.267Z,1.32
2023-07-27T07:36:00.617Z,1.47
2023-07-27T07:37:04.336Z,1.32
2023-07-27T07:39:12.730Z,1.32
2023-07-27T07:40:16.192Z,1.47
2023-07-27T07:42:24.446Z,1.32
2023-07-27T07:43:27.672Z,1.17
2023-07-27T07:45:35.884Z,1.32
2023-07-27T07:46:40.761Z,1.32
2023-07-27T07:48:49.675Z,1.47
2023-07-27T07:49:53.154Z,1.47
2023-07-27T07:52:01.070Z,1.755
2023-07-27T07:53:10.364Z,1.47
2023-07-27T07:55:22.080Z,1.32
2023-07-27T07:56:25.941Z,1.32
2023-07-27T07:58:34.240Z,1.17
2023-07-27T07:59:37.713Z,1.17
2023-07-27T08:00:43.189Z,1.17
2023-07-27T08:01:46.710Z,1.02
2023-07-27T08:03:56.099Z,1.02
2023-07-27T08:04:59.414Z,1.17
2023-07-27T08:07:09.155Z,1.32
2023-07-27T08:08:12.906Z,1.32
2023-07-27T08:10:21.877Z,1.32
2023-07-27T08:11:25.130Z,1.32
2023-07-27T08:13:33.582Z,1.17
2023-07-27T08:14:37.153Z,1.32
2023-07-27T08:16:46.615Z,1.32
2023-07-27T08:17:50.424Z,1.47
2023-07-27T08:19:59.013Z,1.32
2023-07-27T08:21:02.517Z,1.32
2023-07-27T08:23:11.238Z,1.32
2023-07-27T08:24:14.622Z,1.32
2023-07-27T08:26:43.938Z,1.32
2023-07-27T08:27:47.401Z,1.32
2023-07-27T08:29:58.096Z,1.17
2023-07-27T08:31:01.946Z,1.32
2023-07-27T08:33:10.994Z,1.32
2023-07-27T08:34:14.615Z,1.32
2023-07-27T08:36:25.835Z,1.47
2023-07-27T08:37:29.274Z,1.47
2023-07-27T08:39:37.508Z,1.32
2023-07-27T08:40:40.842Z,1.47
2023-07-27T08:42:52.058Z,1.47
2023-07-27T08:43:55.574Z,1.32
2023-07-27T08:46:03.944Z,1.32
2023-07-27T08:47:07.696Z,1.47
2023-07-27T08:49:16.739Z,1.32
2023-07-27T08:50:20.400Z,1.17
2023-07-27T08:52:29.055Z,1.32
2023-07-27T08:53:32.661Z,1.47
2023-07-27T08:55:41.261Z,1.47
2023-07-27T08:56:44.941Z,1.32
2023-07-27T08:58:53.303Z,1.47
2023-07-27T08:59:56.897Z,1.47
2023-07-27T09:00:40.793Z,1.47
2023-07-27T09:01:44.730Z,1.47
2023-07-27T09:03:54.138Z,1.905
2023-07-27T09:04:58.190Z,2.055
2023-07-27T09:07:06.764Z,2.19
2023-07-27T09:08:10.012Z,2.055
2023-07-27T09:10:18.413Z,1.905
2023-07-27T09:11:21.865Z,2.055
2023-07-27T09:13:29.817Z,2.19
2023-07-27T09:14:33.466Z,1.905
2023-07-27T09:16:42.394Z,1.905
2023-07-27T09:17:45.988Z,1.905
2023-07-27T09:19:54.717Z,2.19
2023-07-27T09:20:58.026Z,2.49
2023-07-27T09:23:07.089Z,2.19
2023-07-27T09:24:10.595Z,2.19
2023-07-27T09:26:19.199Z,2.19
2023-07-27T09:27:22.591Z,2.055
2023-07-27T09:29:31.051Z,2.055
2023-07-27T09:30:34.482Z,1.905
2023-07-27T09:32:43.569Z,2.34
2023-07-27T09:33:47.345Z,2.49
2023-07-27T09:35:55.674Z,2.34
2023-07-27T09:36:59.340Z,2.34
2023-07-27T09:39:07.673Z,1.755
2023-07-27T09:40:11.646Z,1.47
2023-07-27T09:42:20.340Z,1.32
2023-07-27T09:43:24.014Z,1.47
2023-07-27T09:45:32.289Z,1.17
2023-07-27T09:46:36.685Z,1.32
2023-07-27T09:48:48.632Z,1.02
2023-07-27T09:49:51.994Z,1.02
2023-07-27T09:52:00.345Z,1.47
2023-07-27T09:53:03.851Z,1.32
2023-07-27T09:55:12.514Z,1.755
2023-07-27T09:56:16.154Z,1.905
2023-07-27T09:58:24.677Z,1.905
2023-07-27T09:59:27.968Z,1.905
2023-07-27T10:00:41.272Z,1.755
2023-07-27T10:01:45.044Z,2.19
2023-07-27T10:04:18.668Z,2.34
2023-07-27T10:05:23.360Z,2.055
2023-07-27T10:07:43.854Z,2.055
2023-07-27T10:08:55.468Z,1.755
2023-07-27T10:11:03.918Z,1.905
2023-07-27T10:12:07.064Z,2.055
2023-07-27T10:14:15.196Z,1.755
2023-07-27T10:15:18.962Z,2.19
2023-07-27T10:17:29.187Z,2.055
2023-07-27T10:18:32.765Z,1.905
2023-07-27T10:20:41.130Z,1.905
2023-07-27T10:21:44.406Z,2.055
2023-07-27T10:23:52.590Z,2.055
2023-07-27T10:24:56.248Z,1.47
2023-07-27T10:27:04.877Z,1.47
2023-07-27T10:28:08.413Z,1.755
2023-07-27T10:30:16.842Z,1.905
2023-07-27T10:31:20.985Z,1.755
2023-07-27T10:33:29.025Z,0.885
2023-07-27T10:35:00.718Z,0.735
2023-07-27T10:37:09.317Z,1.17
2023-07-27T10:38:12.504Z,1.02
2023-07-27T10:40:20.967Z,1.02
2023-07-27T10:41:24.962Z,0.885
2023-07-27T10:43:44.398Z,1.02
2023-07-27T10:44:51.962Z,1.02
2023-07-27T10:47:05.873Z,1.47
2023-07-27T10:48:09.890Z,1.47
2023-07-27T10:50:18.353Z,1.47
2023-07-27T10:51:22.285Z,1.47
2023-07-27T10:53:31.124Z,1.32
2023-07-27T10:54:34.159Z,1.755
2023-07-27T10:56:47.665Z,1.755
2023-07-27T10:57:51.604Z,1.32
2023-07-27T10:59:59.937Z,1.32
2023-07-27T11:00:40.281Z,1.47
2023-07-27T11:01:43.980Z,2.055
2023-07-27T11:03:54.397Z,2.49
2023-07-27T11:05:00.158Z,2.34
2023-07-27T11:07:09.314Z,2.055
2023-07-27T11:08:13.182Z,2.34
2023-07-27T11:10:21.914Z,2.34
2023-07-27T11:11:25.216Z,1.905
2023-07-27T11:13:33.675Z,1.755
2023-07-27T11:14:36.956Z,1.755
2023-07-27T11:16:46.984Z,1.32
2023-07-27T11:17:51.047Z,1.32
2023-07-27T11:19:59.876Z,1.17
2023-07-27T11:21:03.199Z,1.17
2023-07-27T11:23:11.650Z,1.32
2023-07-27T11:24:15.141Z,1.17
2023-07-27T11:26:23.346Z,1.32
2023-07-27T11:27:26.923Z,1.47
2023-07-27T11:29:37.506Z,1.755
2023-07-27T11:30:41.251Z,1.905
2023-07-27T11:32:50.144Z,1.32
2023-07-27T11:33:53.334Z,1.17
2023-07-27T11:36:02.487Z,1.755
2023-07-27T11:37:05.759Z,1.905
2023-07-27T11:39:15.269Z,2.34
2023-07-27T11:40:22.273Z,2.64
2023-07-27T11:43:17.813Z,2.64
2023-07-27T11:44:21.465Z,3.075
2023-07-27T11:46:33.594Z,2.925
2023-07-27T11:47:37.126Z,3.075
2023-07-27T11:49:47.197Z,2.49
2023-07-27T11:50:51.293Z,2.79
2023-07-27T11:52:59.794Z,2.925
2023-07-27T11:54:08.052Z,2.79
2023-07-27T11:56:16.774Z,2.79
2023-07-27T11:57:21.657Z,2.64
2023-07-27T11:59:30.178Z,2.19
2023-07-27T12:00:41.262Z,2.34
2023-07-27T12:01:47.185Z,2.19
2023-07-27T12:04:02.840Z,2.64
2023-07-27T12:05:06.647Z,2.19
2023-07-27T12:07:25.218Z,1.905
2023-07-27T12:09:08.965Z,1.905
2023-07-27T12:12:13.115Z,2.64
2023-07-27T12:13:59.836Z,2.64
2023-07-27T12:18:00.163Z,2.34
2023-07-27T12:21:39.809Z,2.49
2023-07-27T12:22:51.753Z,2.055
2023-07-27T12:29:52.781Z,1.905
2023-07-27T12:37:48.651Z,2.34
2023-07-27T12:39:01.496Z,2.19
2023-07-27T12:42:39.960Z,2.34
2023-07-27T12:43:43.280Z,2.055
2023-07-27T12:45:51.994Z,1.47
2023-07-27T12:46:56.174Z,1.32
2023-07-27T12:49:05.196Z,1.32
2023-07-27T12:50:09.421Z,1.755
2023-07-27T12:52:18.050Z,1.17
2023-07-27T12:53:21.971Z,1.17
2023-07-27T12:55:30.496Z,1.17
2023-07-27T12:56:33.948Z,1.17
2023-07-27T12:58:42.613Z,1.32
2023-07-27T12:59:48.644Z,1.32
2023-07-27T13:01:45.674Z,1.32
2023-07-27T13:03:55.736Z,1.17
2023-07-27T13:04:59.231Z,1.17
2023-07-27T13:07:07.679Z,1.17
2023-07-27T13:08:11.034Z,1.17
2023-07-27T13:10:20.312Z,1.17
2023-07-27T13:11:23.726Z,1.32
2023-07-27T13:13:32.807Z,1.47
2023-07-27T13:14:36.350Z,1.17
2023-07-27T13:16:45.068Z,1.17
2023-07-27T13:17:49.041Z,1.32
2023-07-27T13:20:00.516Z,1.17
2023-07-27T13:21:03.886Z,1.32
2023-07-27T13:23:12.196Z,2.055
2023-07-27T13:24:15.879Z,2.055
2023-07-27T13:26:24.811Z,2.055
2023-07-27T13:27:28.392Z,1.905
2023-07-27T13:29:37.360Z,2.49
2023-07-27T13:30:43.242Z,2.49
2023-07-27T13:32:52.440Z,2.49
2023-07-27T13:33:58.230Z,2.64
2023-07-27T13:36:08.544Z,2.49
2023-07-27T13:37:11.978Z,2.49
2023-07-27T13:39:20.879Z,1.905
2023-07-27T13:40:24.357Z,2.34
2023-07-27T13:42:35.147Z,2.49
2023-07-27T13:43:38.916Z,2.64
2023-07-27T13:45:47.833Z,2.79
2023-07-27T13:46:51.292Z,2.64
2023-07-27T13:49:27.920Z,2.34
2023-07-27T13:50:31.684Z,2.19
2023-07-27T13:52:41.889Z,2.055
2023-07-27T13:53:45.569Z,1.905
2023-07-27T13:55:53.981Z,1.32
2023-07-27T13:56:58.479Z,1.47
2023-07-27T13:59:06.776Z,1.905
2023-07-27T14:00:43.372Z,1.32
2023-07-27T14:01:48.162Z,1.32
2023-07-27T14:03:58.137Z,1.32
2023-07-27T14:05:01.793Z,1.17
2023-07-27T14:07:10.217Z,0.885
2023-07-27T14:08:14.356Z,0.585
2023-07-27T14:10:23.544Z,0.735
2023-07-27T14:11:29.707Z,0.885
2023-07-27T14:13:38.301Z,0.735
2023-07-27T14:14:41.896Z,0.585
2023-07-27T14:16:50.650Z,0.735
2023-07-27T14:17:54.579Z,0.735
2023-07-27T14:20:04.084Z,0.735
2023-07-27T14:21:07.665Z,0.585
2023-07-27T14:23:16.326Z,0.735
2023-07-27T14:24:19.898Z,0.735
2023-07-27T14:26:36.871Z,1.32
2023-07-27T14:28:04.846Z,1.17
2023-07-27T14:30:14.613Z,1.17
2023-07-27T14:31:40.952Z,1.17
2023-07-27T14:33:49.502Z,1.47
2023-07-27T14:34:53.793Z,1.32
2023-07-27T14:37:04.411Z,1.17
2023-07-27T14:38:07.917Z,1.32
2023-07-27T14:41:09.237Z,1.47
2023-07-27T14:42:14.628Z,1.755
2023-07-27T14:44:23.399Z,1.905
2023-07-27T14:45:27.181Z,1.905
2023-07-27T14:47:36.511Z,1.47
2023-07-27T14:51:44.058Z,1.17
2023-07-27T14:52:48.778Z,1.02
2023-07-27T14:55:00.141Z,1.32
2023-07-27T14:56:03.987Z,1.17
2023-07-27T15:00:56.015Z,1.47
2023-07-27T15:05:58.976Z,1.32
2023-07-27T15:07:03.199Z,1.755
2023-07-27T15:09:12.089Z,1.47
2023-07-27T15:10:39.988Z,2.055
2023-07-27T15:12:59.898Z,1.905
2023-07-27T15:14:03.364Z,1.47
2023-07-27T15:16:11.717Z,1.47
2023-07-27T15:17:15.450Z,1.47
2023-07-27T15:19:24.999Z,1.47
2023-07-27T15:20:28.409Z,1.47
2023-07-27T15:22:37.044Z,1.755
2023-07-27T15:23:40.701Z,1.32
2023-07-27T15:25:49.253Z,1.17
2023-07-27T15:26:53.194Z,1.02
2023-07-27T15:29:01.946Z,1.17
2023-07-27T15:30:05.469Z,1.32
2023-07-27T15:32:14.420Z,1.02
2023-07-27T15:33:20.687Z,1.17
2023-07-27T15:35:29.015Z,1.17
2023-07-27T15:36:33.022Z,1.32
2023-07-27T15:38:44.594Z,2.19
2023-07-27T15:39:48.589Z,1.905
2023-07-27T15:41:56.914Z,1.47
2023-07-27T15:43:00.329Z,1.32
2023-07-27T15:45:08.557Z,1.17
2023-07-27T15:46:12.052Z,1.17
2023-07-27T15:48:20.850Z,1.755
2023-07-27T15:49:24.247Z,1.32
2023-07-27T15:51:33.067Z,1.17
2023-07-27T15:52:36.825Z,1.17
2023-07-27T15:54:45.372Z,0.735
2023-07-27T15:55:49.601Z,1.02
2023-07-27T15:58:04.549Z,1.02
2023-07-27T15:59:07.940Z,0.885
2023-07-27T16:01:45.319Z,1.02
2023-07-27T16:03:55.570Z,1.17
2023-07-27T16:04:59.041Z,1.17
2023-07-27T16:06:11.562Z,1.17
2023-07-27T16:07:15.212Z,1.47
2023-07-27T16:09:24.120Z,1.17
2023-07-27T16:10:28.025Z,1.17
2023-07-27T16:12:39.678Z,1.32
2023-07-27T16:13:43.605Z,1.17
2023-07-27T16:15:52.743Z,1.02
2023-07-27T16:16:57.329Z,1.17
2023-07-27T16:19:07.842Z,1.32
2023-07-27T16:20:11.630Z,1.32
2023-07-27T16:22:20.219Z,1.47
2023-07-27T16:23:24.011Z,1.32
2023-07-27T16:25:32.850Z,1.47
2023-07-27T16:26:36.709Z,1.47
2023-07-27T16:28:46.161Z,1.47
2023-07-27T16:29:50.140Z,1.32
2023-07-27T16:32:02.780Z,1.02
2023-07-27T16:33:06.672Z,1.02
2023-07-27T16:35:15.815Z,1.02
2023-07-27T16:36:22.608Z,1.02
2023-07-27T16:38:31.234Z,1.17
2023-07-27T16:39:34.919Z,1.02
2023-07-27T16:41:43.689Z,1.17
2023-07-27T16:42:47.247Z,1.17
2023-07-27T16:44:56.459Z,1.02
2023-07-27T16:46:00.081Z,1.32
2023-07-27T16:48:09.879Z,1.17
2023-07-27T16:49:13.704Z,0.885
2023-07-27T16:51:22.404Z,0.585
2023-07-27T16:52:25.886Z,0.735
2023-07-27T16:54:34.985Z,1.02
2023-07-27T16:55:38.612Z,0.735
2023-07-27T16:57:48.224Z,0.885
2023-07-27T16:58:55.159Z,0.585
2023-07-27T17:00:41.501Z,0.735
2023-07-27T17:01:45.428Z,0.735
2023-07-27T17:03:55.484Z,0.585
2023-07-27T17:05:01.182Z,0.585
2023-07-27T17:07:10.105Z,0.435
2023-07-27T17:08:13.654Z,0.735
2023-07-27T17:10:22.210Z,0.735
2023-07-27T17:11:25.878Z,0.735
2023-07-27T17:13:37.729Z,0.585
2023-07-27T17:14:41.332Z,0.585
2023-07-27T17:16:54.914Z,0.885
2023-07-27T17:17:58.803Z,0.885
2023-07-27T17:20:08.013Z,0.735
2023-07-27T17:21:11.775Z,0.585
2023-07-27T17:23:23.505Z,0.585
2023-07-27T17:24:27.160Z,0.585
2023-07-27T17:26:36.274Z,0.885
2023-07-27T17:27:40.413Z,0.735
2023-07-27T17:29:49.838Z,0.585
2023-07-27T17:30:53.280Z,0.735
2023-07-27T17:33:02.629Z,0.885
2023-07-27T17:34:06.432Z,0.585
2023-07-27T17:36:15.103Z,0.435
2023-07-27T17:37:18.537Z,0.735
2023-07-27T17:39:30.025Z,0.585
2023-07-27T17:40:34.625Z,0.735
2023-07-27T17:42:44.106Z,0.585
2023-07-27T17:43:47.611Z,0.585
2023-07-27T17:45:56.813Z,0.735
2023-07-27T17:47:00.423Z,0.585
2023-07-27T17:49:09.549Z,0.585
2023-07-27T17:50:16.663Z,0.435
2023-07-27T17:52:25.820Z,0.435
2023-07-27T17:53:29.454Z,0.435
2023-07-27T17:55:40.505Z,0.435
2023-07-27T17:56:44.449Z,0.585
2023-07-27T17:58:53.085Z,0.585
2023-07-27T17:59:56.686Z,0.585
2023-07-27T18:00:40.837Z,0.585
2023-07-27T18:01:45.663Z,0.585
2023-07-27T18:03:56.195Z,0.585
2023-07-27T18:05:00.232Z,0.585
2023-07-27T18:07:08.911Z,0.435
2023-07-27T18:08:12.245Z,0.735
2023-07-27T18:10:23.549Z,0.585
2023-07-27T18:11:27.028Z,0.585
2023-07-27T18:13:35.851Z,0.435
2023-07-27T18:14:39.324Z,0.435
2023-07-27T18:16:48.818Z,0.435
2023-07-27T18:17:55.995Z,0.435
2023-07-27T18:20:04.492Z,0.435
2023-07-27T18:21:08.328Z,0.435
2023-07-27T18:23:16.996Z,0.435
2023-07-27T18:24:40.409Z,0.435
2023-07-27T18:26:49.299Z,0.435
2023-07-27T18:27:52.990Z,0.435
2023-07-27T18:30:01.697Z,0.435
2023-07-27T18:31:05.127Z,0.435
2023-07-27T18:33:14.375Z,0.435
2023-07-27T18:34:17.917Z,0.585
2023-07-27T18:36:28.533Z,0.435
2023-07-27T18:37:32.228Z,0.435
2023-07-27T18:39:41.413Z,0.435
2023-07-27T18:40:44.780Z,0.435
2023-07-27T18:42:54.115Z,0
2023-07-27T18:43:57.745Z,0.585
2023-07-27T18:46:06.796Z,0
2023-07-27T18:47:10.105Z,0
2023-07-27T18:49:21.596Z,0.435
2023-07-27T18:50:26.053Z,0
2023-07-27T18:52:35.145Z,0.435
2023-07-27T18:53:38.550Z,0
2023-07-27T18:55:47.817Z,0
2023-07-27T18:56:51.398Z,0.435
2023-07-27T18:59:01.085Z,0
2023-07-27T19:00:41.243Z,0.435
2023-07-27T19:01:45.877Z,0
2023-07-27T19:03:55.078Z,0
2023-07-27T19:04:58.673Z,0.435
2023-07-27T19:07:07.487Z,0
2023-07-27T19:08:10.847Z,0
2023-07-27T19:10:20.001Z,0.435
2023-07-27T19:11:23.386Z,0
2023-07-27T19:13:31.554Z,0
2023-07-27T19:14:37.213Z,0.435
2023-07-27T19:16:46.107Z,0.435
2023-07-27T19:17:49.946Z,0
2023-07-27T19:19:58.796Z,0
2023-07-27T19:21:02.812Z,0
2023-07-27T19:23:11.943Z,0
2023-07-27T19:24:18.720Z,0.435
2023-07-27T19:26:27.874Z,0
2023-07-27T19:27:31.424Z,0.435
2023-07-27T19:29:40.298Z,0
2023-07-27T19:30:43.938Z,0.435
2023-07-27T19:32:53.740Z,0
2023-07-27T19:33:57.639Z,0
2023-07-27T19:36:05.968Z,0
2023-07-27T19:37:09.531Z,0
2023-07-27T19:39:19.092Z,0
2023-07-27T19:40:22.726Z,0
2023-07-27T19:42:31.622Z,0.435
2023-07-27T19:43:36.782Z,0
2023-07-27T19:45:45.524Z,0
2023-07-27T19:46:50.360Z,0
2023-07-27T19:49:02.426Z,0
2023-07-27T19:50:27.577Z,0
2023-07-27T19:52:35.882Z,0
2023-07-27T19:53:39.654Z,0
2023-07-27T19:55:48.129Z,0
2023-07-27T19:56:52.056Z,0
2023-07-27T19:59:00.686Z,0
2023-07-27T20:00:41.235Z,0
2023-07-27T20:01:46.930Z,0.435
2023-07-27T20:03:56.225Z,0.435
2023-07-27T20:04:59.918Z,0
2023-07-27T20:07:08.911Z,0
2023-07-27T20:08:12.398Z,0.435
2023-07-27T20:10:22.052Z,0
2023-07-27T20:11:25.866Z,0.435
2023-07-27T20:13:34.556Z,0
2023-07-27T20:15:01.989Z,0
2023-07-27T20:17:13.697Z,0
2023-07-27T20:18:17.452Z,0
2023-07-27T20:20:26.194Z,0
2023-07-27T20:21:29.907Z,0
2023-07-27T20:23:38.997Z,0
2023-07-27T20:24:43.914Z,0
2023-07-27T20:26:53.120Z,0
2023-07-27T20:27:56.922Z,0.435
2023-07-27T20:30:05.083Z,0
2023-07-27T20:31:08.894Z,0
2023-07-27T20:33:17.587Z,0
2023-07-27T20:34:21.094Z,0.435
2023-07-27T20:36:29.983Z,0.435
2023-07-27T20:37:33.459Z,0
2023-07-27T20:39:42.183Z,0.435
2023-07-27T20:40:45.962Z,0
2023-07-27T20:42:54.891Z,0
2023-07-27T20:43:58.339Z,0
2023-07-27T20:46:07.066Z,0
2023-07-27T20:47:10.793Z,0
2023-07-27T20:49:19.682Z,0.435
2023-07-27T20:50:23.294Z,0
2023-07-27T20:52:31.817Z,0
2023-07-27T20:53:35.189Z,0
2023-07-27T20:55:44.188Z,0
2023-07-27T20:56:48.453Z,0
2023-07-27T20:58:57.124Z,0
2023-07-27T21:00:00.670Z,0
2023-07-27T21:00:40.936Z,0
2023-07-27T21:01:44.716Z,0
2023-07-27T21:03:53.791Z,0.435
2023-07-27T21:04:57.566Z,0.435
2023-07-27T21:07:06.108Z,0
2023-07-27T21:08:09.688Z,0
2023-07-27T21:10:18.679Z,0
2023-07-27T21:11:22.387Z,0
2023-07-27T21:13:30.685Z,0
2023-07-27T21:14:34.506Z,0.435
2023-07-27T21:16:44.776Z,0
2023-07-27T21:17:48.716Z,0.435
2023-07-27T21:19:57.136Z,0.435
2023-07-27T21:21:00.529Z,0
2023-07-27T21:23:08.685Z,0
2023-07-27T21:24:12.123Z,0
2023-07-27T21:26:24.086Z,0
2023-07-27T21:27:27.558Z,0
2023-07-27T21:29:36.035Z,0
2023-07-27T21:30:39.814Z,0
2023-07-27T21:32:48.568Z,0.435
2023-07-27T21:33:57.815Z,0
2023-07-27T21:36:06.248Z,0.435
2023-07-27T21:37:09.807Z,0
2023-07-27T21:39:18.153Z,0
2023-07-27T21:40:41.049Z,0
2023-07-27T21:42:49.809Z,0
2023-07-27T21:43:53.036Z,0
2023-07-27T21:46:01.595Z,0
2023-07-27T21:47:05.589Z,0
2023-07-27T21:49:14.154Z,0
2023-07-27T21:50:18.881Z,0
2023-07-27T21:52:27.738Z,0
2023-07-27T21:53:31.349Z,0
2023-07-27T21:55:39.684Z,0
2023-07-27T21:56:43.699Z,0
2023-07-27T21:58:52.076Z,0.435
2023-07-27T21:59:57.161Z,0.435
2023-07-27T22:00:42.400Z,0
2023-07-27T22:01:46.246Z,0.435
2023-07-27T22:03:55.079Z,0
2023-07-27T22:04:58.879Z,0
2023-07-27T22:07:07.638Z,0
2023-07-27T22:08:11.364Z,0
2023-07-27T22:10:19.975Z,0
2023-07-27T22:11:23.541Z,0.435
2023-07-27T22:13:32.138Z,0.435
2023-07-27T22:14:35.575Z,0